sensor_id;sensor_type;location;lat;lon;timestamp;P1;durP1;ratioP1;P2;durP2;ratioP2
40256;SDS011;25977;45.462;9.210;2023-07-31T00:00:26;9.07;;;6.80;;
40256;SDS011;25977;45.462;9.210;2023-07-31T00:02:52;11.05;;;7.78;;
40256;SDS011;25977;45.462;9.210;2023-07-31T00:05:19;9.07;;;8.23;;
40256;SDS011;25977;45.462;9.210;2023-07-31T00:07:44;10.85;;;9.40;;
40256;SDS011;25977;45.462;9.210;2023-07-31T00:10:10;11.80;;;8.70;;
40256;SDS011;25977;45.462;9.210;2023-07-31T00:12:37;14.68;;;10.32;;
40256;SDS011;25977;45.462;9.210;2023-07-31T00:15:06;10.23;;;9.23;;
40256;SDS011;25977;45.462;9.210;2023-07-31T00:17:32;11.38;;;10.18;;
40256;SDS011;25977;45.462;9.210;2023-07-31T00:19:58;11.32;;;9.07;;
40256;SDS011;25977;45.462;9.210;2023-07-31T00:22:23;14.23;;;9.95;;
40256;SDS011;25977;45.462;9.210;2023-07-31T00:24:49;11.88;;;9.63;;
40256;SDS011;25977;45.462;9.210;2023-07-31T00:27:15;14.88;;;11.63;;
40256;SDS011;25977;45.462;9.210;2023-07-31T00:29:40;13.90;;;10.60;;
40256;SDS011;25977;45.462;9.210;2023-07-31T00:32:06;12.15;;;10.77;;
40256;SDS011;25977;45.462;9.210;2023-07-31T00:34:32;11.30;;;10.10;;
40256;SDS011;25977;45.462;9.210;2023-07-31T00:36:58;10.15;;;9.15;;
40256;SDS011;25977;45.462;9.210;2023-07-31T00:39:24;9.38;;;8.52;;
40256;SDS011;25977;45.462;9.210;2023-07-31T00:41:49;13.70;;;9.10;;
40256;SDS011;25977;45.462;9.210;2023-07-31T00:44:16;11.05;;;9.77;;
40256;SDS011;25977;45.462;9.210;2023-07-31T00:46:42;10.98;;;9.82;;
40256;SDS011;25977;45.462;9.210;2023-07-31T00:49:07;8.70;;;7.90;;
40256;SDS011;25977;45.462;9.210;2023-07-31T00:51:34;11.48;;;8.85;;
40256;SDS011;25977;45.462;9.210;2023-07-31T00:53:59;9.75;;;8.73;;
40256;SDS011;25977;45.462;9.210;2023-07-31T00:56:25;9.88;;;8.82;;
40256;SDS011;25977;45.462;9.210;2023-07-31T00:58:53;11.50;;;10.35;;
40256;SDS011;25977;45.462;9.210;2023-07-31T01:01:20;10.35;;;9.35;;
40256;SDS011;25977;45.462;9.210;2023-07-31T01:03:45;11.07;;;8.85;;
40256;SDS011;25977;45.462;9.210;2023-07-31T01:06:15;10.68;;;9.45;;
40256;SDS011;25977;45.462;9.210;2023-07-31T01:11:27;16.05;;;8.75;;
40256;SDS011;25977;45.462;9.210;2023-07-31T01:13:55;10.95;;;8.88;;
40256;SDS011;25977;45.462;9.210;2023-07-31T01:16:20;7.93;;;7.15;;
40256;SDS011;25977;45.462;9.210;2023-07-31T01:18:47;8.65;;;7.50;;
40256;SDS011;25977;45.462;9.210;2023-07-31T01:21:19;8.75;;;7.90;;
40256;SDS011;25977;45.462;9.210;2023-07-31T01:26:40;6.68;;;6.18;;
40256;SDS011;25977;45.462;9.210;2023-07-31T01:32:12;7.15;;;6.63;;
40256;SDS011;25977;45.462;9.210;2023-07-31T01:34:38;8.88;;;7.20;;
40256;SDS011;25977;45.462;9.210;2023-07-31T01:37:06;7.20;;;6.50;;
40256;SDS011;25977;45.462;9.210;2023-07-31T01:39:32;8.73;;;6.45;;
40256;SDS011;25977;45.462;9.210;2023-07-31T01:41:58;7.50;;;6.25;;
40256;SDS011;25977;45.462;9.210;2023-07-31T01:44:23;7.13;;;6.43;;
40256;SDS011;25977;45.462;9.210;2023-07-31T01:46:49;5.45;;;4.95;;
40256;SDS011;25977;45.462;9.210;2023-07-31T01:49:14;7.55;;;6.43;;
40256;SDS011;25977;45.462;9.210;2023-07-31T01:51:41;8.05;;;6.18;;
40256;SDS011;25977;45.462;9.210;2023-07-31T01:54:06;6.10;;;5.25;;
40256;SDS011;25977;45.462;9.210;2023-07-31T01:56:32;5.88;;;5.45;;
40256;SDS011;25977;45.462;9.210;2023-07-31T01:58:58;5.57;;;5.07;;
40256;SDS011;25977;45.462;9.210;2023-07-31T02:01:24;6.10;;;5.55;;
40256;SDS011;25977;45.462;9.210;2023-07-31T02:03:50;5.18;;;4.85;;
40256;SDS011;25977;45.462;9.210;2023-07-31T02:06:15;5.00;;;4.63;;
40256;SDS011;25977;45.462;9.210;2023-07-31T02:08:42;5.72;;;5.20;;
40256;SDS011;25977;45.462;9.210;2023-07-31T02:11:08;5.35;;;4.88;;
40256;SDS011;25977;45.462;9.210;2023-07-31T02:13:33;4.78;;;4.38;;
40256;SDS011;25977;45.462;9.210;2023-07-31T02:15:59;4.63;;;4.22;;
40256;SDS011;25977;45.462;9.210;2023-07-31T02:18:25;5.70;;;4.40;;
40256;SDS011;25977;45.462;9.210;2023-07-31T02:20:50;5.85;;;4.75;;
40256;SDS011;25977;45.462;9.210;2023-07-31T02:23:19;6.78;;;4.72;;
40256;SDS011;25977;45.462;9.210;2023-07-31T02:25:47;4.63;;;4.22;;
40256;SDS011;25977;45.462;9.210;2023-07-31T02:28:13;4.65;;;3.88;;
40256;SDS011;25977;45.462;9.210;2023-07-31T02:30:38;4.20;;;3.90;;
40256;SDS011;25977;45.462;9.210;2023-07-31T02:33:05;4.88;;;4.47;;
40256;SDS011;25977;45.462;9.210;2023-07-31T02:35:30;5.30;;;4.07;;
40256;SDS011;25977;45.462;9.210;2023-07-31T02:37:56;6.38;;;4.53;;
40256;SDS011;25977;45.462;9.210;2023-07-31T02:40:22;4.07;;;3.78;;
40256;SDS011;25977;45.462;9.210;2023-07-31T02:42:48;4.57;;;4.18;;
40256;SDS011;25977;45.462;9.210;2023-07-31T02:45:14;5.00;;;3.80;;
40256;SDS011;25977;45.462;9.210;2023-07-31T02:47:40;5.10;;;4.60;;
40256;SDS011;25977;45.462;9.210;2023-07-31T02:50:06;3.80;;;3.60;;
40256;SDS011;25977;45.462;9.210;2023-07-31T02:52:32;4.47;;;3.63;;
40256;SDS011;25977;45.462;9.210;2023-07-31T02:54:58;4.70;;;3.25;;
40256;SDS011;25977;45.462;9.210;2023-07-31T02:57:24;5.53;;;3.58;;
40256;SDS011;25977;45.462;9.210;2023-07-31T02:59:49;3.88;;;3.58;;
40256;SDS011;25977;45.462;9.210;2023-07-31T03:02:15;4.50;;;3.22;;
40256;SDS011;25977;45.462;9.210;2023-07-31T03:04:41;3.13;;;2.88;;
40256;SDS011;25977;45.462;9.210;2023-07-31T03:07:06;4.43;;;3.70;;
40256;SDS011;25977;45.462;9.210;2023-07-31T03:09:32;3.65;;;3.35;;
40256;SDS011;25977;45.462;9.210;2023-07-31T03:11:57;2.92;;;2.72;;
40256;SDS011;25977;45.462;9.210;2023-07-31T03:14:23;3.15;;;2.95;;
40256;SDS011;25977;45.462;9.210;2023-07-31T03:16:51;3.47;;;3.05;;
40256;SDS011;25977;45.462;9.210;2023-07-31T03:19:17;2.97;;;2.78;;
40256;SDS011;25977;45.462;9.210;2023-07-31T03:21:43;4.38;;;3.80;;
40256;SDS011;25977;45.462;9.210;2023-07-31T03:24:08;5.25;;;3.30;;
40256;SDS011;25977;45.462;9.210;2023-07-31T03:26:34;3.92;;;3.55;;
40256;SDS011;25977;45.462;9.210;2023-07-31T03:29:01;3.25;;;2.95;;
40256;SDS011;25977;45.462;9.210;2023-07-31T03:31:28;3.38;;;3.17;;
40256;SDS011;25977;45.462;9.210;2023-07-31T03:33:54;3.30;;;3.00;;
40256;SDS011;25977;45.462;9.210;2023-07-31T03:36:20;3.85;;;3.55;;
40256;SDS011;25977;45.462;9.210;2023-07-31T03:38:46;4.10;;;3.03;;
40256;SDS011;25977;45.462;9.210;2023-07-31T03:41:12;4.85;;;3.35;;
40256;SDS011;25977;45.462;9.210;2023-07-31T03:43:37;3.17;;;2.88;;
40256;SDS011;25977;45.462;9.210;2023-07-31T03:46:03;4.20;;;3.10;;
40256;SDS011;25977;45.462;9.210;2023-07-31T03:48:30;5.07;;;3.80;;
40256;SDS011;25977;45.462;9.210;2023-07-31T03:50:55;3.67;;;3.38;;
40256;SDS011;25977;45.462;9.210;2023-07-31T03:53:21;3.50;;;3.20;;
40256;SDS011;25977;45.462;9.210;2023-07-31T03:55:46;3.25;;;3.00;;
40256;SDS011;25977;45.462;9.210;2023-07-31T03:58:12;3.67;;;3.38;;
40256;SDS011;25977;45.462;9.210;2023-07-31T04:00:39;4.63;;;3.53;;
40256;SDS011;25977;45.462;9.210;2023-07-31T04:03:05;6.40;;;3.67;;
40256;SDS011;25977;45.462;9.210;2023-07-31T04:05:31;4.95;;;3.25;;
40256;SDS011;25977;45.462;9.210;2023-07-31T04:07:57;7.20;;;4.20;;
40256;SDS011;25977;45.462;9.210;2023-07-31T04:10:23;3.30;;;3.08;;
40256;SDS011;25977;45.462;9.210;2023-07-31T04:12:49;3.05;;;2.85;;
40256;SDS011;25977;45.462;9.210;2023-07-31T04:15:14;5.25;;;3.25;;
40256;SDS011;25977;45.462;9.210;2023-07-31T04:17:40;3.53;;;3.20;;
40256;SDS011;25977;45.462;9.210;2023-07-31T04:20:06;4.03;;;3.25;;
40256;SDS011;25977;45.462;9.210;2023-07-31T04:22:32;3.83;;;3.53;;
40256;SDS011;25977;45.462;9.210;2023-07-31T04:24:58;3.90;;;3.50;;
40256;SDS011;25977;45.462;9.210;2023-07-31T04:27:23;3.60;;;3.28;;
40256;SDS011;25977;45.462;9.210;2023-07-31T04:29:49;3.63;;;3.30;;
40256;SDS011;25977;45.462;9.210;2023-07-31T04:32:16;3.38;;;3.15;;
40256;SDS011;25977;45.462;9.210;2023-07-31T04:34:41;3.17;;;2.97;;
40256;SDS011;25977;45.462;9.210;2023-07-31T04:37:07;4.03;;;3.60;;
40256;SDS011;25977;45.462;9.210;2023-07-31T04:39:33;4.47;;;3.60;;
40256;SDS011;25977;45.462;9.210;2023-07-31T04:41:59;5.32;;;3.47;;
40256;SDS011;25977;45.462;9.210;2023-07-31T04:44:27;3.42;;;3.22;;
40256;SDS011;25977;45.462;9.210;2023-07-31T04:46:54;4.40;;;3.25;;
40256;SDS011;25977;45.462;9.210;2023-07-31T04:49:20;3.05;;;2.88;;
40256;SDS011;25977;45.462;9.210;2023-07-31T04:51:46;3.50;;;3.30;;
40256;SDS011;25977;45.462;9.210;2023-07-31T04:54:11;3.35;;;2.97;;
40256;SDS011;25977;45.462;9.210;2023-07-31T04:56:40;3.38;;;2.85;;
40256;SDS011;25977;45.462;9.210;2023-07-31T04:59:06;3.08;;;2.72;;
40256;SDS011;25977;45.462;9.210;2023-07-31T05:01:32;4.07;;;3.50;;
40256;SDS011;25977;45.462;9.210;2023-07-31T05:03:57;2.88;;;2.63;;
40256;SDS011;25977;45.462;9.210;2023-07-31T05:06:23;3.47;;;3.15;;
40256;SDS011;25977;45.462;9.210;2023-07-31T05:08:49;3.13;;;2.90;;
40256;SDS011;25977;45.462;9.210;2023-07-31T05:11:14;6.00;;;2.72;;
40256;SDS011;25977;45.462;9.210;2023-07-31T05:13:40;3.78;;;2.92;;
40256;SDS011;25977;45.462;9.210;2023-07-31T05:16:06;3.67;;;2.83;;
40256;SDS011;25977;45.462;9.210;2023-07-31T05:18:31;3.05;;;2.85;;
40256;SDS011;25977;45.462;9.210;2023-07-31T05:20:57;2.72;;;2.53;;
40256;SDS011;25977;45.462;9.210;2023-07-31T05:23:23;2.97;;;2.65;;
40256;SDS011;25977;45.462;9.210;2023-07-31T05:25:48;3.08;;;2.42;;
40256;SDS011;25977;45.462;9.210;2023-07-31T05:28:14;4.05;;;3.00;;
40256;SDS011;25977;45.462;9.210;2023-07-31T05:30:40;3.33;;;3.03;;
40256;SDS011;25977;45.462;9.210;2023-07-31T05:33:05;5.43;;;2.90;;
40256;SDS011;25977;45.462;9.210;2023-07-31T05:35:31;3.17;;;2.80;;
40256;SDS011;25977;45.462;9.210;2023-07-31T05:37:57;2.83;;;2.63;;
40256;SDS011;25977;45.462;9.210;2023-07-31T05:40:22;3.97;;;2.50;;
40256;SDS011;25977;45.462;9.210;2023-07-31T05:42:48;3.20;;;2.85;;
40256;SDS011;25977;45.462;9.210;2023-07-31T05:45:14;5.25;;;3.85;;
40256;SDS011;25977;45.462;9.210;2023-07-31T05:47:39;2.70;;;2.50;;
40256;SDS011;25977;45.462;9.210;2023-07-31T05:50:05;3.45;;;2.60;;
40256;SDS011;25977;45.462;9.210;2023-07-31T05:52:31;4.82;;;2.42;;
40256;SDS011;25977;45.462;9.210;2023-07-31T05:54:57;2.72;;;2.53;;
40256;SDS011;25977;45.462;9.210;2023-07-31T05:57:22;3.08;;;2.70;;
40256;SDS011;25977;45.462;9.210;2023-07-31T05:59:48;2.53;;;2.33;;
40256;SDS011;25977;45.462;9.210;2023-07-31T06:02:14;2.10;;;2.00;;
40256;SDS011;25977;45.462;9.210;2023-07-31T06:04:39;2.40;;;1.85;;
40256;SDS011;25977;45.462;9.210;2023-07-31T06:07:05;3.20;;;2.35;;
40256;SDS011;25977;45.462;9.210;2023-07-31T06:09:31;2.53;;;2.33;;
40256;SDS011;25977;45.462;9.210;2023-07-31T06:11:56;2.92;;;2.65;;
40256;SDS011;25977;45.462;9.210;2023-07-31T06:14:22;3.20;;;2.08;;
40256;SDS011;25977;45.462;9.210;2023-07-31T06:16:49;2.72;;;2.22;;
40256;SDS011;25977;45.462;9.210;2023-07-31T06:19:14;3.97;;;3.47;;
40256;SDS011;25977;45.462;9.210;2023-07-31T06:21:42;2.10;;;2.00;;
40256;SDS011;25977;45.462;9.210;2023-07-31T06:24:09;5.43;;;2.58;;
40256;SDS011;25977;45.462;9.210;2023-07-31T06:26:34;4.10;;;2.47;;
40256;SDS011;25977;45.462;9.210;2023-07-31T06:29:00;2.60;;;2.42;;
40256;SDS011;25977;45.462;9.210;2023-07-31T06:31:25;2.20;;;2.10;;
40256;SDS011;25977;45.462;9.210;2023-07-31T06:33:51;4.53;;;2.30;;
40256;SDS011;25977;45.462;9.210;2023-07-31T06:36:17;2.20;;;2.10;;
40256;SDS011;25977;45.462;9.210;2023-07-31T06:38:43;3.15;;;2.30;;
40256;SDS011;25977;45.462;9.210;2023-07-31T06:41:09;2.38;;;2.17;;
40256;SDS011;25977;45.462;9.210;2023-07-31T06:43:35;5.47;;;2.15;;
40256;SDS011;25977;45.462;9.210;2023-07-31T06:46:05;3.92;;;2.13;;
40256;SDS011;25977;45.462;9.210;2023-07-31T06:48:32;1.85;;;1.75;;
40256;SDS011;25977;45.462;9.210;2023-07-31T06:50:58;2.60;;;2.05;;
40256;SDS011;25977;45.462;9.210;2023-07-31T06:53:25;3.63;;;2.30;;
40256;SDS011;25977;45.462;9.210;2023-07-31T06:55:51;2.17;;;1.80;;
40256;SDS011;25977;45.462;9.210;2023-07-31T06:58:17;1.67;;;1.58;;
40256;SDS011;25977;45.462;9.210;2023-07-31T07:00:43;3.75;;;2.13;;
40256;SDS011;25977;45.462;9.210;2023-07-31T07:03:08;2.60;;;1.60;;
40256;SDS011;25977;45.462;9.210;2023-07-31T07:05:34;2.38;;;1.70;;
40256;SDS011;25977;45.462;9.210;2023-07-31T07:08:00;2.08;;;1.90;;
40256;SDS011;25977;45.462;9.210;2023-07-31T07:10:26;1.73;;;1.63;;
40256;SDS011;25977;45.462;9.210;2023-07-31T07:12:52;1.30;;;1.20;;
40256;SDS011;25977;45.462;9.210;2023-07-31T07:15:18;1.48;;;1.25;;
40256;SDS011;25977;45.462;9.210;2023-07-31T07:17:43;1.42;;;1.33;;
40256;SDS011;25977;45.462;9.210;2023-07-31T07:20:09;1.05;;;1.05;;
40256;SDS011;25977;45.462;9.210;2023-07-31T07:22:35;2.45;;;1.30;;
40256;SDS011;25977;45.462;9.210;2023-07-31T07:25:01;2.83;;;1.13;;
40256;SDS011;25977;45.462;9.210;2023-07-31T07:27:27;1.92;;;1.83;;
40256;SDS011;25977;45.462;9.210;2023-07-31T07:29:52;1.08;;;1.08;;
40256;SDS011;25977;45.462;9.210;2023-07-31T07:32:18;1.60;;;1.50;;
40256;SDS011;25977;45.462;9.210;2023-07-31T07:34:44;2.50;;;1.58;;
40256;SDS011;25977;45.462;9.210;2023-07-31T07:37:10;2.15;;;1.45;;
40256;SDS011;25977;45.462;9.210;2023-07-31T07:39:36;1.58;;;1.33;;
40256;SDS011;25977;45.462;9.210;2023-07-31T07:42:02;1.33;;;1.23;;
40256;SDS011;25977;45.462;9.210;2023-07-31T07:44:28;3.35;;;1.98;;
40256;SDS011;25977;45.462;9.210;2023-07-31T07:46:54;1.42;;;1.20;;
40256;SDS011;25977;45.462;9.210;2023-07-31T07:49:19;2.70;;;1.38;;
40256;SDS011;25977;45.462;9.210;2023-07-31T07:51:47;1.33;;;1.23;;
40256;SDS011;25977;45.462;9.210;2023-07-31T07:54:13;2.55;;;1.40;;
40256;SDS011;25977;45.462;9.210;2023-07-31T07:56:39;4.43;;;1.50;;
40256;SDS011;25977;45.462;9.210;2023-07-31T07:59:05;3.95;;;1.50;;
40256;SDS011;25977;45.462;9.210;2023-07-31T08:01:30;2.38;;;1.80;;
40256;SDS011;25977;45.462;9.210;2023-07-31T08:03:56;3.10;;;1.70;;
40256;SDS011;25977;45.462;9.210;2023-07-31T08:06:22;2.55;;;1.40;;
40256;SDS011;25977;45.462;9.210;2023-07-31T08:08:49;6.20;;;1.40;;
40256;SDS011;25977;45.462;9.210;2023-07-31T08:11:15;2.42;;;1.10;;
40256;SDS011;25977;45.462;9.210;2023-07-31T08:13:40;1.30;;;1.20;;
40256;SDS011;25977;45.462;9.210;2023-07-31T08:16:09;1.98;;;1.65;;
40256;SDS011;25977;45.462;9.210;2023-07-31T08:18:35;2.58;;;1.40;;
40256;SDS011;25977;45.462;9.210;2023-07-31T08:21:03;1.60;;;1.50;;
40256;SDS011;25977;45.462;9.210;2023-07-31T08:23:29;2.03;;;1.58;;
40256;SDS011;25977;45.462;9.210;2023-07-31T08:25:55;1.70;;;1.60;;
40256;SDS011;25977;45.462;9.210;2023-07-31T08:28:20;2.78;;;1.95;;
40256;SDS011;25977;45.462;9.210;2023-07-31T08:30:46;3.33;;;1.80;;
40256;SDS011;25977;45.462;9.210;2023-07-31T08:33:11;1.58;;;1.40;;
40256;SDS011;25977;45.462;9.210;2023-07-31T08:35:37;2.13;;;1.92;;
40256;SDS011;25977;45.462;9.210;2023-07-31T08:38:03;1.80;;;1.70;;
40256;SDS011;25977;45.462;9.210;2023-07-31T08:40:29;2.22;;;2.13;;
40256;SDS011;25977;45.462;9.210;2023-07-31T08:42:55;3.97;;;1.75;;
40256;SDS011;25977;45.462;9.210;2023-07-31T08:45:27;1.58;;;1.00;;
40256;SDS011;25977;45.462;9.210;2023-07-31T08:47:53;1.85;;;1.35;;
40256;SDS011;25977;45.462;9.210;2023-07-31T08:50:21;2.10;;;1.90;;
40256;SDS011;25977;45.462;9.210;2023-07-31T08:52:47;1.88;;;1.50;;
40256;SDS011;25977;45.462;9.210;2023-07-31T08:55:14;3.35;;;2.00;;
40256;SDS011;25977;45.462;9.210;2023-07-31T08:57:40;2.40;;;2.10;;
40256;SDS011;25977;45.462;9.210;2023-07-31T09:00:08;2.22;;;1.58;;
40256;SDS011;25977;45.462;9.210;2023-07-31T09:02:43;1.92;;;1.77;;
40256;SDS011;25977;45.462;9.210;2023-07-31T09:05:11;2.22;;;1.75;;
40256;SDS011;25977;45.462;9.210;2023-07-31T09:07:37;1.38;;;1.38;;
40256;SDS011;25977;45.462;9.210;2023-07-31T09:10:04;2.28;;;2.08;;
40256;SDS011;25977;45.462;9.210;2023-07-31T09:12:31;2.55;;;2.35;;
40256;SDS011;25977;45.462;9.210;2023-07-31T09:14:57;3.13;;;2.40;;
40256;SDS011;25977;45.462;9.210;2023-07-31T09:17:30;5.07;;;3.00;;
40256;SDS011;25977;45.462;9.210;2023-07-31T09:19:56;2.58;;;2.47;;
40256;SDS011;25977;45.462;9.210;2023-07-31T09:22:32;3.95;;;3.53;;
40256;SDS011;25977;45.462;9.210;2023-07-31T09:27:57;5.57;;;2.55;;
40256;SDS011;25977;45.462;9.210;2023-07-31T09:30:24;4.95;;;4.47;;
40256;SDS011;25977;45.462;9.210;2023-07-31T09:32:51;3.33;;;3.03;;
40256;SDS011;25977;45.462;9.210;2023-07-31T09:35:31;3.88;;;3.03;;
40256;SDS011;25977;45.462;9.210;2023-07-31T09:37:59;3.53;;;3.33;;
40256;SDS011;25977;45.462;9.210;2023-07-31T09:40:32;4.75;;;4.45;;
40256;SDS011;25977;45.462;9.210;2023-07-31T09:43:00;5.15;;;3.47;;
40256;SDS011;25977;45.462;9.210;2023-07-31T09:45:30;4.20;;;3.88;;
40256;SDS011;25977;45.462;9.210;2023-07-31T09:47:59;6.00;;;5.03;;
40256;SDS011;25977;45.462;9.210;2023-07-31T09:50:25;3.33;;;3.08;;
40256;SDS011;25977;45.462;9.210;2023-07-31T09:52:51;5.18;;;3.72;;
40256;SDS011;25977;45.462;9.210;2023-07-31T09:55:17;6.13;;;3.85;;
40256;SDS011;25977;45.462;9.210;2023-07-31T09:57:44;5.50;;;3.65;;
40256;SDS011;25977;45.462;9.210;2023-07-31T10:00:12;3.88;;;3.53;;
40256;SDS011;25977;45.462;9.210;2023-07-31T10:02:40;5.07;;;4.68;;
40256;SDS011;25977;45.462;9.210;2023-07-31T10:05:06;5.55;;;4.13;;
40256;SDS011;25977;45.462;9.210;2023-07-31T10:07:38;4.75;;;4.15;;
40256;SDS011;25977;45.462;9.210;2023-07-31T10:10:07;5.88;;;5.32;;
40256;SDS011;25977;45.462;9.210;2023-07-31T10:12:34;5.18;;;4.78;;
40256;SDS011;25977;45.462;9.210;2023-07-31T10:15:00;6.00;;;5.40;;
40256;SDS011;25977;45.462;9.210;2023-07-31T10:17:26;6.05;;;5.55;;
40256;SDS011;25977;45.462;9.210;2023-07-31T10:19:54;6.20;;;5.70;;
40256;SDS011;25977;45.462;9.210;2023-07-31T10:22:23;5.45;;;4.95;;
40256;SDS011;25977;45.462;9.210;2023-07-31T10:24:49;5.03;;;4.68;;
40256;SDS011;25977;45.462;9.210;2023-07-31T10:27:17;4.18;;;3.88;;
40256;SDS011;25977;45.462;9.210;2023-07-31T10:29:43;4.78;;;3.97;;
40256;SDS011;25977;45.462;9.210;2023-07-31T10:32:12;4.95;;;4.55;;
40256;SDS011;25977;45.462;9.210;2023-07-31T10:34:42;6.97;;;3.28;;
40256;SDS011;25977;45.462;9.210;2023-07-31T10:40:04;4.63;;;4.22;;
40256;SDS011;25977;45.462;9.210;2023-07-31T10:42:50;3.25;;;2.95;;
40256;SDS011;25977;45.462;9.210;2023-07-31T10:45:36;4.25;;;3.97;;
40256;SDS011;25977;45.462;9.210;2023-07-31T10:48:06;3.55;;;3.25;;
40256;SDS011;25977;45.462;9.210;2023-07-31T10:50:37;3.85;;;2.25;;
40256;SDS011;25977;45.462;9.210;2023-07-31T10:53:03;8.57;;;3.55;;
40256;SDS011;25977;45.462;9.210;2023-07-31T10:55:33;7.10;;;2.78;;
40256;SDS011;25977;45.462;9.210;2023-07-31T10:58:05;2.97;;;2.78;;
40256;SDS011;25977;45.462;9.210;2023-07-31T11:00:33;4.70;;;4.03;;
40256;SDS011;25977;45.462;9.210;2023-07-31T11:05:41;3.60;;;3.30;;
40256;SDS011;25977;45.462;9.210;2023-07-31T11:10:39;5.10;;;4.57;;
40256;SDS011;25977;45.462;9.210;2023-07-31T11:13:05;6.47;;;4.57;;
40256;SDS011;25977;45.462;9.210;2023-07-31T11:15:31;4.50;;;4.10;;
40256;SDS011;25977;45.462;9.210;2023-07-31T11:17:56;5.20;;;4.40;;
40256;SDS011;25977;45.462;9.210;2023-07-31T11:20:27;3.65;;;3.35;;
40256;SDS011;25977;45.462;9.210;2023-07-31T11:22:57;5.30;;;4.97;;
40256;SDS011;25977;45.462;9.210;2023-07-31T11:25:28;4.60;;;4.20;;
40256;SDS011;25977;45.462;9.210;2023-07-31T11:27:55;3.80;;;3.50;;
40256;SDS011;25977;45.462;9.210;2023-07-31T11:30:21;4.20;;;3.08;;
40256;SDS011;25977;45.462;9.210;2023-07-31T11:32:47;4.25;;;3.85;;
40256;SDS011;25977;45.462;9.210;2023-07-31T11:35:13;4.10;;;3.63;;
40256;SDS011;25977;45.462;9.210;2023-07-31T11:37:39;4.15;;;3.65;;
40256;SDS011;25977;45.462;9.210;2023-07-31T11:40:08;3.72;;;3.42;;
40256;SDS011;25977;45.462;9.210;2023-07-31T11:42:35;8.15;;;3.13;;
40256;SDS011;25977;45.462;9.210;2023-07-31T11:45:04;3.40;;;3.13;;
40256;SDS011;25977;45.462;9.210;2023-07-31T11:47:34;3.58;;;3.38;;
40256;SDS011;25977;45.462;9.210;2023-07-31T11:50:05;4.70;;;3.10;;
40256;SDS011;25977;45.462;9.210;2023-07-31T11:52:40;4.00;;;3.50;;
40256;SDS011;25977;45.462;9.210;2023-07-31T11:55:09;3.85;;;3.65;;
40256;SDS011;25977;45.462;9.210;2023-07-31T11:57:40;4.35;;;3.95;;
40256;SDS011;25977;45.462;9.210;2023-07-31T12:00:08;4.50;;;3.67;;
40256;SDS011;25977;45.462;9.210;2023-07-31T12:02:36;4.07;;;3.67;;
40256;SDS011;25977;45.462;9.210;2023-07-31T12:05:05;4.15;;;3.78;;
40256;SDS011;25977;45.462;9.210;2023-07-31T12:07:43;3.60;;;3.20;;
40256;SDS011;25977;45.462;9.210;2023-07-31T12:10:26;2.65;;;2.55;;
40256;SDS011;25977;45.462;9.210;2023-07-31T12:13:03;2.92;;;2.72;;
40256;SDS011;25977;45.462;9.210;2023-07-31T12:15:37;3.20;;;3.00;;
40256;SDS011;25977;45.462;9.210;2023-07-31T12:18:14;3.33;;;3.08;;
40256;SDS011;25977;45.462;9.210;2023-07-31T12:21:00;3.25;;;2.92;;
40256;SDS011;25977;45.462;9.210;2023-07-31T12:23:27;3.00;;;2.70;;
40256;SDS011;25977;45.462;9.210;2023-07-31T12:26:11;2.50;;;2.30;;
40256;SDS011;25977;45.462;9.210;2023-07-31T12:28:42;3.30;;;3.05;;
40256;SDS011;25977;45.462;9.210;2023-07-31T12:31:20;2.60;;;2.40;;
40256;SDS011;25977;45.462;9.210;2023-07-31T12:33:48;2.58;;;2.38;;
40256;SDS011;25977;45.462;9.210;2023-07-31T12:36:17;3.13;;;2.92;;
40256;SDS011;25977;45.462;9.210;2023-07-31T12:38:54;2.70;;;2.50;;
40256;SDS011;25977;45.462;9.210;2023-07-31T12:41:21;2.65;;;2.45;;
40256;SDS011;25977;45.462;9.210;2023-07-31T12:43:47;4.60;;;2.28;;
40256;SDS011;25977;45.462;9.210;2023-07-31T12:46:13;5.28;;;2.67;;
40256;SDS011;25977;45.462;9.210;2023-07-31T12:48:40;3.80;;;2.30;;
40256;SDS011;25977;45.462;9.210;2023-07-31T12:51:06;2.70;;;2.38;;
40256;SDS011;25977;45.462;9.210;2023-07-31T12:53:32;2.67;;;2.47;;
40256;SDS011;25977;45.462;9.210;2023-07-31T12:55:58;4.68;;;2.80;;
40256;SDS011;25977;45.462;9.210;2023-07-31T12:58:24;5.82;;;2.60;;
40256;SDS011;25977;45.462;9.210;2023-07-31T13:00:50;4.25;;;3.05;;
40256;SDS011;25977;45.462;9.210;2023-07-31T13:03:16;3.13;;;2.92;;
40256;SDS011;25977;45.462;9.210;2023-07-31T13:05:41;3.00;;;2.50;;
40256;SDS011;25977;45.462;9.210;2023-07-31T13:08:07;2.70;;;2.50;;
40256;SDS011;25977;45.462;9.210;2023-07-31T13:10:33;3.35;;;2.63;;
40256;SDS011;25977;45.462;9.210;2023-07-31T13:12:58;2.53;;;2.35;;
40256;SDS011;25977;45.462;9.210;2023-07-31T13:15:24;2.20;;;2.00;;
40256;SDS011;25977;45.462;9.210;2023-07-31T13:17:50;3.70;;;3.10;;
40256;SDS011;25977;45.462;9.210;2023-07-31T13:20:16;2.40;;;2.25;;
40256;SDS011;25977;45.462;9.210;2023-07-31T13:22:41;3.17;;;2.97;;
40256;SDS011;25977;45.462;9.210;2023-07-31T13:25:07;3.17;;;2.83;;
40256;SDS011;25977;45.462;9.210;2023-07-31T13:27:34;3.33;;;2.28;;
40256;SDS011;25977;45.462;9.210;2023-07-31T13:30:00;2.88;;;2.67;;
40256;SDS011;25977;45.462;9.210;2023-07-31T13:32:26;3.17;;;2.55;;
40256;SDS011;25977;45.462;9.210;2023-07-31T13:34:51;3.03;;;2.83;;
40256;SDS011;25977;45.462;9.210;2023-07-31T13:37:17;2.65;;;2.28;;
40256;SDS011;25977;45.462;9.210;2023-07-31T13:39:43;2.58;;;2.38;;
40256;SDS011;25977;45.462;9.210;2023-07-31T13:42:08;2.72;;;2.42;;
40256;SDS011;25977;45.462;9.210;2023-07-31T13:44:40;2.95;;;2.30;;
40256;SDS011;25977;45.462;9.210;2023-07-31T13:49:34;3.55;;;2.50;;
40256;SDS011;25977;45.462;9.210;2023-07-31T13:52:01;5.70;;;2.22;;
40256;SDS011;25977;45.462;9.210;2023-07-31T13:54:28;4.57;;;2.42;;
40256;SDS011;25977;45.462;9.210;2023-07-31T13:56:54;2.40;;;2.20;;
40256;SDS011;25977;45.462;9.210;2023-07-31T13:59:20;2.53;;;2.40;;
40256;SDS011;25977;45.462;9.210;2023-07-31T14:01:46;2.90;;;2.20;;
40256;SDS011;25977;45.462;9.210;2023-07-31T14:04:12;2.30;;;2.20;;
40256;SDS011;25977;45.462;9.210;2023-07-31T14:06:38;2.35;;;1.88;;
40256;SDS011;25977;45.462;9.210;2023-07-31T14:09:04;2.83;;;2.10;;
40256;SDS011;25977;45.462;9.210;2023-07-31T14:11:31;5.05;;;2.25;;
40256;SDS011;25977;45.462;9.210;2023-07-31T14:13:56;2.22;;;2.10;;
40256;SDS011;25977;45.462;9.210;2023-07-31T14:16:22;2.08;;;1.90;;
40256;SDS011;25977;45.462;9.210;2023-07-31T14:18:48;6.15;;;1.88;;
40256;SDS011;25977;45.462;9.210;2023-07-31T14:21:14;2.17;;;2.00;;
40256;SDS011;25977;45.462;9.210;2023-07-31T14:23:40;2.55;;;2.30;;
40256;SDS011;25977;45.462;9.210;2023-07-31T14:26:06;2.97;;;1.90;;
40256;SDS011;25977;45.462;9.210;2023-07-31T14:28:32;3.05;;;2.00;;
40256;SDS011;25977;45.462;9.210;2023-07-31T14:30:58;3.58;;;2.00;;
40256;SDS011;25977;45.462;9.210;2023-07-31T14:33:24;1.98;;;1.88;;
40256;SDS011;25977;45.462;9.210;2023-07-31T14:35:49;2.25;;;2.15;;
40256;SDS011;25977;45.462;9.210;2023-07-31T14:38:15;2.45;;;1.90;;
40256;SDS011;25977;45.462;9.210;2023-07-31T14:40:41;2.67;;;2.25;;
40256;SDS011;25977;45.462;9.210;2023-07-31T14:43:07;2.35;;;2.15;;
40256;SDS011;25977;45.462;9.210;2023-07-31T14:45:33;4.13;;;2.10;;
40256;SDS011;25977;45.462;9.210;2023-07-31T14:47:58;3.05;;;1.88;;
40256;SDS011;25977;45.462;9.210;2023-07-31T14:50:24;2.28;;;2.17;;
40256;SDS011;25977;45.462;9.210;2023-07-31T14:52:51;2.00;;;1.90;;
40256;SDS011;25977;45.462;9.210;2023-07-31T14:55:17;3.67;;;2.33;;
40256;SDS011;25977;45.462;9.210;2023-07-31T14:57:43;4.85;;;2.05;;
40256;SDS011;25977;45.462;9.210;2023-07-31T15:00:09;2.20;;;2.00;;
40256;SDS011;25977;45.462;9.210;2023-07-31T15:02:36;2.28;;;2.03;;
40256;SDS011;25977;45.462;9.210;2023-07-31T15:05:05;3.33;;;2.08;;